Luke Air Force Base
KLUF : now visible

Airfield :











YOU CAN JOIN US ON...

 
LOGIN :

Register | Disclaimer

   EN    FR    IT 

 









Legend :    VFR   Marginal VFR   IFR   Intensive IFR   Very Intensive IFR
Visi :
Ceiling :
>= 8 km
>= 3000ft
5 to 8 km
1000 to 3000 ft
1500m to 5 km
500 to 1000 ft
800 to 1500m
200 to 500 ft
< 800m
< 200 ft
Symbols :   Thunderstorms  Fog  Heavy snow  Heavy precipitations  Wind > 20 kt






- Airport Elevation : 1085 ft


KLUF - Luke Air Force Base

CURRENT METAR :
  • 011455Z 00000KT 10SM FEW070 06/02 A3006 RMK AO2A SLP181 T00590018 52010 $

EXPIRED METARs :
  • 011405Z AUTO 34005KT 10SM BKN100 06/01 A3005 RMK AO2 SLP177 $
  • 011355Z AUTO 00000KT 10SM SCT100 06/02 A3005 RMK AO2 SLP177 T00620017 $
  • 011305Z AUTO 33005KT 10SM FEW100 06/02 A3004 RMK AO2 SLP173 $
  • 011255Z AUTO 00000KT 10SM BKN100 06/02 A3004 RMK AO2 SLP173 T00610020 $
  • 011235Z AUTO 00000KT 10SM BKN100 07/02 A3003 RMK AO2 SLP169 $
  • 011225Z AUTO 00000KT 10SM BKN095 06/02 A3004 RMK AO2 SLP172 $

TAF TAF KLUF
Valid from the 01 at 12:00 until the 02 at 18:00 UTC


011200Z 0112/0218 VRB06KT 9999 SCT100 QNH3004INS
BECMG 0114/0115 VRB06KT 9999 SKC QNH3006INS TX18/0123Z TN07/0114Z
KZAB FIR / North America



MET'MAP, your aeronautical weather chart ! - Copyright ORBIFLY December 2007 - Disclaimer

ORBIFLY MET'MAP TEAM :

Programming & Development : Alexandra Zaïnal
Original concept : Baudouin d'Aumeries
Technical & hardware support : Manuel Goepfert
Assistance : Marc-Olivier Méhu




SOURCES & CREDITS :

   NOAA       Earth
Advisory